createdAt,value
2018-07-05T00:00:26.675Z,13.95
2018-07-05T00:01:26.554Z,13.95
2018-07-05T00:02:26.429Z,13.96
2018-07-05T00:03:26.311Z,14.02
2018-07-05T00:04:26.183Z,14.02
2018-07-05T00:05:26.061Z,13.98
2018-07-05T00:06:25.939Z,13.88
2018-07-05T00:07:25.816Z,13.96
2018-07-05T00:08:25.691Z,13.98
2018-07-05T00:09:25.569Z,13.96
2018-07-05T00:10:25.447Z,13.98
2018-07-05T00:11:25.327Z,13.92
2018-07-05T00:12:25.202Z,13.99
2018-07-05T00:13:25.079Z,13.92
2018-07-05T00:14:24.956Z,14.02
2018-07-05T00:15:24.837Z,13.96
2018-07-05T00:16:24.714Z,13.95
2018-07-05T00:17:24.591Z,13.95
2018-07-05T00:18:24.470Z,13.92
2018-07-05T00:19:24.347Z,13.92
2018-07-05T00:20:24.224Z,13.88
2018-07-05T00:21:24.106Z,13.92
2018-07-05T00:22:23.981Z,13.95
2018-07-05T00:23:23.857Z,13.95
2018-07-05T00:24:23.736Z,13.88
2018-07-05T00:25:23.613Z,13.94
2018-07-05T00:26:23.492Z,13.94
2018-07-05T00:27:23.371Z,13.83
2018-07-05T00:28:23.250Z,13.81
2018-07-05T00:29:23.126Z,13.88
2018-07-05T00:30:23.002Z,13.87
2018-07-05T00:31:22.881Z,13.87
2018-07-05T00:32:22.766Z,13.84
2018-07-05T00:33:22.636Z,13.89
2018-07-05T00:34:22.516Z,13.88
2018-07-05T00:35:22.393Z,14.01
2018-07-05T00:36:22.283Z,14.12
2018-07-05T00:37:22.146Z,14.07
2018-07-05T00:38:22.024Z,14.06
2018-07-05T00:39:21.902Z,14.09
2018-07-05T00:40:21.782Z,14.07
2018-07-05T00:41:21.658Z,14.09
2018-07-05T00:42:21.537Z,14.21
2018-07-05T00:43:21.419Z,14.14
2018-07-05T00:44:21.292Z,14.10
2018-07-05T00:45:21.169Z,14.17
2018-07-05T00:46:21.049Z,14.14
2018-07-05T00:47:20.924Z,14.06
2018-07-05T00:48:20.805Z,14.10
2018-07-05T00:49:20.680Z,14.09
2018-07-05T00:50:20.557Z,14.09
2018-07-05T00:51:20.438Z,14.10
2018-07-05T00:52:20.314Z,14.21
2018-07-05T00:53:20.190Z,14.17
2018-07-05T00:54:20.067Z,14.24
2018-07-05T00:55:19.950Z,14.14
2018-07-05T00:56:19.825Z,14.12
2018-07-05T00:57:19.702Z,14.19
2018-07-05T00:58:19.580Z,14.20
2018-07-05T00:59:19.459Z,14.17
2018-07-05T01:00:19.339Z,14.09
2018-07-05T01:01:19.211Z,14.17
2018-07-05T01:02:19.091Z,14.19
2018-07-05T01:03:18.971Z,14.16
2018-07-05T01:04:18.848Z,14.14
2018-07-05T01:05:18.723Z,14.17
2018-07-05T01:06:18.601Z,14.21
2018-07-05T01:07:20.052Z,14.12
2018-07-05T01:08:18.359Z,14.04
2018-07-05T01:09:18.235Z,14.10
2018-07-05T01:10:18.112Z,14.12
2018-07-05T01:11:17.989Z,14.09
2018-07-05T01:12:17.870Z,14.02
2018-07-05T01:13:17.748Z,14.09
2018-07-05T01:14:17.626Z,14.10
2018-07-05T01:15:17.503Z,14.02
2018-07-05T01:16:17.384Z,14.02
2018-07-05T01:17:17.257Z,14.02
2018-07-05T01:18:17.141Z,14.02
2018-07-05T01:19:17.015Z,14.10
2018-07-05T01:20:16.891Z,14.07
2018-07-05T01:21:16.772Z,14.12
2018-07-05T01:22:16.649Z,14.02
2018-07-05T01:23:16.525Z,14.09
2018-07-05T01:24:16.402Z,14.07
2018-07-05T01:25:16.277Z,14.16
2018-07-05T01:26:16.157Z,14.17
2018-07-05T01:27:16.037Z,14.19
2018-07-05T01:28:15.911Z,14.17
2018-07-05T01:29:15.791Z,14.19
2018-07-05T01:30:15.668Z,14.07
2018-07-05T01:31:15.547Z,14.01
2018-07-05T01:32:15.428Z,14.04
2018-07-05T01:33:15.303Z,14.14
2018-07-05T01:34:15.181Z,14.10
2018-07-05T01:35:15.059Z,14.02
2018-07-05T01:36:14.935Z,14.09
2018-07-05T01:37:14.812Z,14.16
2018-07-05T01:38:14.693Z,14.07
2018-07-05T01:39:14.610Z,14.07
2018-07-05T01:40:14.446Z,14.07
2018-07-05T01:41:14.324Z,14.06
2018-07-05T01:42:14.200Z,14.07
2018-07-05T01:43:14.079Z,14.10
2018-07-05T01:44:13.957Z,14.02
2018-07-05T01:45:13.833Z,14.10
2018-07-05T01:46:13.712Z,13.99
2018-07-05T01:47:13.592Z,14.06
2018-07-05T01:48:13.470Z,14.04
2018-07-05T01:49:13.346Z,14.07
2018-07-05T01:50:13.225Z,14.10
2018-07-05T01:51:13.105Z,14.06
2018-07-05T01:52:12.979Z,14.09
2018-07-05T01:53:12.857Z,14.27
2018-07-05T01:54:12.736Z,14.20
2018-07-05T01:55:12.612Z,14.19
2018-07-05T01:56:12.492Z,14.21
2018-07-05T01:57:12.369Z,14.21
2018-07-05T01:58:12.248Z,14.21
2018-07-05T01:59:12.125Z,14.21
2018-07-05T02:00:12.020Z,14.19
2018-07-05T02:01:11.880Z,14.24
2018-07-05T02:02:11.759Z,14.21
2018-07-05T02:03:11.636Z,14.20
2018-07-05T02:04:11.515Z,14.25
2018-07-05T02:05:11.394Z,14.28
2018-07-05T02:06:11.269Z,14.29
2018-07-05T02:07:11.151Z,14.24
2018-07-05T02:08:11.031Z,14.35
2018-07-05T02:09:10.903Z,14.31
2018-07-05T02:10:10.781Z,14.29
2018-07-05T02:11:10.662Z,14.29
2018-07-05T02:12:10.543Z,14.20
2018-07-05T02:13:10.416Z,14.24
2018-07-05T02:14:10.293Z,14.32
2018-07-05T02:15:10.171Z,14.24
2018-07-05T02:16:10.051Z,14.16
2018-07-05T02:17:09.930Z,14.13
2018-07-05T02:18:09.805Z,14.20
2018-07-05T02:19:09.683Z,14.16
2018-07-05T02:20:09.561Z,14.17
2018-07-05T02:21:09.438Z,14.27
2018-07-05T02:22:09.313Z,14.24
2018-07-05T02:23:09.194Z,14.20
2018-07-05T02:24:09.073Z,14.28
2018-07-05T02:25:08.950Z,14.24
2018-07-05T02:26:08.829Z,14.28
2018-07-05T02:27:08.708Z,14.24
2018-07-05T02:28:08.583Z,14.24
2018-07-05T02:29:08.463Z,14.29
2018-07-05T02:30:08.339Z,14.25
2018-07-05T02:31:08.221Z,14.35
2018-07-05T02:32:08.098Z,14.34
2018-07-05T02:33:07.973Z,14.46
2018-07-05T02:34:07.852Z,14.52
2018-07-05T02:35:07.731Z,14.60
2018-07-05T02:36:07.612Z,14.53
2018-07-05T02:37:07.485Z,14.67
2018-07-05T02:38:07.362Z,14.57
2018-07-05T02:39:07.242Z,14.56
2018-07-05T02:40:07.122Z,14.46
2018-07-05T02:41:07.002Z,14.17
2018-07-05T02:42:06.879Z,13.98
2018-07-05T02:43:06.758Z,13.89
2018-07-05T02:44:06.633Z,13.73
2018-07-05T02:45:06.509Z,13.73
2018-07-05T02:46:06.390Z,13.81
2018-07-05T02:47:06.265Z,13.88
2018-07-05T02:48:06.144Z,13.96
2018-07-05T02:49:06.024Z,13.95
2018-07-05T02:50:05.900Z,13.99
2018-07-05T02:51:05.780Z,13.94
2018-07-05T02:52:05.655Z,13.88
2018-07-05T02:53:05.533Z,13.80
2018-07-05T02:54:05.407Z,13.43
2018-07-05T02:55:05.289Z,13.36
2018-07-05T02:56:05.168Z,13.06
2018-07-05T02:57:05.045Z,13.09
2018-07-05T02:58:04.924Z,13.04
2018-07-05T02:59:04.800Z,13.11
2018-07-05T03:00:04.676Z,13.06
2018-07-05T03:01:04.552Z,12.85
2018-07-05T03:02:04.434Z,12.88
2018-07-05T03:03:04.310Z,12.85
2018-07-05T03:04:04.187Z,12.88
2018-07-05T03:05:04.065Z,12.84
2018-07-05T03:06:03.948Z,12.87
2018-07-05T03:07:03.821Z,12.87
2018-07-05T03:08:03.700Z,12.74
2018-07-05T03:09:03.570Z,12.71
2018-07-05T03:10:03.451Z,12.71
2018-07-05T03:11:03.345Z,12.63
2018-07-05T03:12:03.206Z,12.44
2018-07-05T03:13:03.080Z,12.54
2018-07-05T03:14:02.957Z,12.57
2018-07-05T03:15:02.840Z,12.46
2018-07-05T03:16:02.713Z,12.34
2018-07-05T03:17:02.590Z,12.39
2018-07-05T03:18:02.470Z,12.38
2018-07-05T03:19:02.344Z,12.29
2018-07-05T03:20:02.218Z,12.31
2018-07-05T03:21:02.094Z,12.34
2018-07-05T03:22:01.979Z,12.37
2018-07-05T03:23:01.852Z,12.19
2018-07-05T03:24:01.736Z,12.29
2018-07-05T03:25:01.605Z,12.31
2018-07-05T03:26:01.480Z,12.26
2018-07-05T03:27:01.358Z,12.24
2018-07-05T03:28:01.236Z,12.21
2018-07-05T03:29:01.113Z,12.09
2018-07-05T03:30:00.989Z,12.09
2018-07-05T03:31:00.865Z,12.15
2018-07-05T03:32:00.744Z,12.09
2018-07-05T03:33:00.619Z,12.12
2018-07-05T03:34:00.495Z,12.06
2018-07-05T03:35:00.375Z,12.13
2018-07-05T03:36:00.248Z,12.04
2018-07-05T03:37:00.126Z,11.99
2018-07-05T03:38:00.023Z,11.99
2018-07-05T03:38:59.878Z,12.01
2018-07-05T03:39:59.754Z,11.93
2018-07-05T03:40:59.632Z,11.99
2018-07-05T03:41:59.511Z,12.02
2018-07-05T03:42:59.386Z,11.99
2018-07-05T03:43:59.263Z,11.85
2018-07-05T03:44:59.139Z,11.86
2018-07-05T03:45:59.020Z,11.86
2018-07-05T03:46:58.890Z,11.80
2018-07-05T03:47:58.768Z,11.96
2018-07-05T03:48:58.650Z,11.99
2018-07-05T03:49:58.521Z,11.97
2018-07-05T03:50:58.397Z,11.87
2018-07-05T03:51:58.274Z,11.94
2018-07-05T03:52:58.148Z,11.86
2018-07-05T03:53:58.024Z,11.89
2018-07-05T03:54:57.908Z,11.97
2018-07-05T03:55:57.781Z,11.93
2018-07-05T03:56:57.656Z,11.86
2018-07-05T03:57:57.531Z,11.85
2018-07-05T03:58:57.409Z,11.90
2018-07-05T03:59:57.293Z,11.97
2018-07-05T04:00:57.158Z,12.02
2018-07-05T04:01:57.039Z,12.02
2018-07-05T04:02:56.914Z,11.86
2018-07-05T04:03:56.795Z,11.86
2018-07-05T04:04:56.666Z,11.80
2018-07-05T04:05:56.548Z,11.83
2018-07-05T04:06:56.421Z,11.83
2018-07-05T04:07:56.299Z,11.86
2018-07-05T04:08:56.172Z,11.78
2018-07-05T04:09:56.051Z,11.71
2018-07-05T04:10:55.930Z,11.78
2018-07-05T04:11:55.815Z,11.90
2018-07-05T04:12:56.122Z,11.80
2018-07-05T04:13:55.555Z,11.80
2018-07-05T04:14:55.431Z,11.77
2018-07-05T04:15:55.471Z,11.78
2018-07-05T04:16:55.289Z,11.67
2018-07-05T04:17:55.063Z,11.78
2018-07-05T04:18:54.937Z,11.75
2018-07-05T04:19:54.812Z,11.72
2018-07-05T04:20:54.687Z,11.71
2018-07-05T04:21:54.661Z,11.77
2018-07-05T04:22:54.443Z,11.80
2018-07-05T04:23:54.321Z,11.80
2018-07-05T04:24:54.197Z,11.83
2018-07-05T04:25:54.071Z,11.87
2018-07-05T04:26:53.949Z,12.06
2018-07-05T04:27:54.141Z,12.01
2018-07-05T04:28:53.703Z,12.01
2018-07-05T04:29:53.578Z,12.13
2018-07-05T04:30:53.453Z,12.21
2018-07-05T04:31:53.331Z,12.29
2018-07-05T04:32:53.210Z,12.24
2018-07-05T04:33:53.083Z,12.34
2018-07-05T04:34:52.958Z,12.29
2018-07-05T04:35:52.837Z,12.41
2018-07-05T04:36:52.713Z,12.39
2018-07-05T04:37:52.591Z,12.33
2018-07-05T04:38:52.479Z,12.34
2018-07-05T04:39:52.345Z,12.33
2018-07-05T04:40:52.221Z,12.33
2018-07-05T04:41:52.100Z,12.31
2018-07-05T04:42:51.976Z,12.39
2018-07-05T04:43:51.853Z,12.49
2018-07-05T04:44:51.734Z,12.52
2018-07-05T04:45:51.607Z,12.57
2018-07-05T04:46:51.484Z,12.59
2018-07-05T04:47:51.407Z,12.52
2018-07-05T04:48:51.345Z,12.54
2018-07-05T04:49:51.114Z,12.63
2018-07-05T04:50:50.989Z,12.62
2018-07-05T04:51:50.872Z,12.66
2018-07-05T04:52:50.745Z,12.69
2018-07-05T04:53:50.627Z,12.69
2018-07-05T04:54:50.499Z,12.75
2018-07-05T04:55:50.375Z,12.82
2018-07-05T04:56:50.268Z,12.92
2018-07-05T04:57:50.139Z,12.85
2018-07-05T04:58:50.072Z,12.85
2018-07-05T04:59:49.885Z,12.85
2018-07-05T05:00:49.766Z,12.92
2018-07-05T05:01:49.639Z,12.84
2018-07-05T05:02:49.519Z,12.85
2018-07-05T05:03:49.438Z,12.89
2018-07-05T05:04:49.270Z,12.84
2018-07-05T05:05:49.148Z,12.78
2018-07-05T05:06:49.051Z,12.85
2018-07-05T05:07:49.617Z,12.92
2018-07-05T05:08:48.796Z,12.85
2018-07-05T05:09:48.658Z,12.85
2018-07-05T05:10:48.550Z,12.87
2018-07-05T05:11:48.413Z,12.89
2018-07-05T05:12:48.496Z,12.96
2018-07-05T05:13:48.166Z,13.09
2018-07-05T05:14:48.678Z,13.29
2018-07-05T05:15:47.920Z,13.36
2018-07-05T05:16:47.919Z,13.47
2018-07-05T05:17:47.677Z,13.52
2018-07-05T05:18:47.577Z,13.69
2018-07-05T05:19:47.431Z,13.80
2018-07-05T05:20:47.310Z,13.92
2018-07-05T05:21:47.188Z,14.13
2018-07-05T05:22:47.064Z,14.39
2018-07-05T05:23:46.942Z,14.62
2018-07-05T05:24:46.821Z,14.75
2018-07-05T05:25:46.698Z,15.09
2018-07-05T05:26:46.579Z,15.30
2018-07-05T05:27:46.454Z,15.59
2018-07-05T05:28:46.337Z,15.68
2018-07-05T05:29:46.210Z,15.96
2018-07-05T05:30:46.089Z,16.01
2018-07-05T05:31:45.965Z,16.16
2018-07-05T05:32:45.845Z,16.20
2018-07-05T05:33:45.727Z,15.92
2018-07-05T05:34:45.602Z,15.92
2018-07-05T05:35:45.483Z,15.92
2018-07-05T05:36:45.363Z,15.75
2018-07-05T05:37:45.241Z,15.66
2018-07-05T05:38:45.118Z,15.70
2018-07-05T05:39:44.996Z,15.70
2018-07-05T05:40:44.871Z,15.66
2018-07-05T05:41:44.754Z,15.52
2018-07-05T05:42:44.640Z,15.51
2018-07-05T05:43:44.513Z,15.33
2018-07-05T05:44:44.389Z,15.46
2018-07-05T05:45:44.267Z,15.51
2018-07-05T05:46:44.149Z,15.66
2018-07-05T05:47:44.083Z,15.79
2018-07-05T05:48:43.904Z,15.92
2018-07-05T05:49:43.785Z,15.86
2018-07-05T05:50:43.664Z,16.11
2018-07-05T05:51:43.542Z,16.25
2018-07-05T05:52:43.419Z,16.22
2018-07-05T05:53:43.298Z,16.30
2018-07-05T05:54:43.179Z,16.37
2018-07-05T05:55:43.133Z,16.30
2018-07-05T05:56:42.938Z,16.20
2018-07-05T05:57:42.817Z,16.12
2018-07-05T05:58:42.736Z,16.01
2018-07-05T05:59:42.575Z,16.03
2018-07-05T06:00:42.458Z,15.92
2018-07-05T06:01:42.334Z,15.74
2018-07-05T06:02:42.213Z,15.43
2018-07-05T06:03:42.091Z,15.13
2018-07-05T06:04:41.971Z,14.99
2018-07-05T06:05:41.848Z,15.05
2018-07-05T06:06:41.727Z,15.08
2018-07-05T06:07:41.612Z,15.15
2018-07-05T06:08:41.487Z,15.17
2018-07-05T06:09:41.367Z,15.24
2018-07-05T06:10:41.246Z,15.30
2018-07-05T06:11:41.125Z,15.27
2018-07-05T06:12:41.004Z,15.30
2018-07-05T06:13:40.883Z,15.13
2018-07-05T06:14:40.762Z,15.05
2018-07-05T06:15:40.644Z,15.03
2018-07-05T06:16:40.536Z,14.98
2018-07-05T06:17:40.401Z,15.03
2018-07-05T06:18:40.326Z,15.01
2018-07-05T06:19:40.157Z,14.99
2018-07-05T06:20:40.039Z,14.93
2018-07-05T06:21:39.916Z,14.95
2018-07-05T06:22:39.798Z,14.74
2018-07-05T06:23:39.675Z,14.75
2018-07-05T06:24:39.555Z,14.78
2018-07-05T06:25:39.503Z,14.83
2018-07-05T06:26:39.313Z,14.93
2018-07-05T06:27:39.189Z,14.68
2018-07-05T06:28:39.072Z,14.57
2018-07-05T06:29:38.946Z,14.56
2018-07-05T06:30:38.824Z,14.49
2018-07-05T06:31:38.703Z,14.43
2018-07-05T06:32:38.609Z,14.53
2018-07-05T06:33:38.461Z,14.50
2018-07-05T06:34:38.349Z,14.64
2018-07-05T06:35:38.225Z,14.75
2018-07-05T06:36:38.097Z,14.87
2018-07-05T06:37:37.981Z,14.91
2018-07-05T06:38:37.858Z,15.01
2018-07-05T06:39:37.785Z,14.84
2018-07-05T06:40:37.615Z,14.80
2018-07-05T06:41:37.498Z,14.64
2018-07-05T06:42:37.371Z,14.71
2018-07-05T06:43:37.251Z,14.68
2018-07-05T06:44:37.128Z,14.69
2018-07-05T06:45:37.006Z,14.60
2018-07-05T06:46:36.885Z,14.57
2018-07-05T06:47:36.767Z,14.52
2018-07-05T06:48:36.643Z,14.53
2018-07-05T06:49:36.521Z,14.57
2018-07-05T06:50:36.401Z,14.69
2018-07-05T06:51:36.281Z,14.68
2018-07-05T06:52:36.158Z,14.69
2018-07-05T06:53:36.036Z,14.74
2018-07-05T06:54:35.915Z,14.71
2018-07-05T06:55:35.794Z,14.68
2018-07-05T06:56:35.673Z,14.83
2018-07-05T06:57:35.549Z,14.88
2018-07-05T06:58:35.430Z,14.99
2018-07-05T06:59:35.309Z,15.03
2018-07-05T07:00:35.185Z,15.02
2018-07-05T07:01:35.065Z,15.03
2018-07-05T07:02:34.941Z,15.11
2018-07-05T07:03:34.823Z,15.08
2018-07-05T07:04:34.701Z,15.13
2018-07-05T07:05:34.579Z,15.02
2018-07-05T07:06:34.458Z,15.02
2018-07-05T07:07:34.336Z,15.13
2018-07-05T07:08:34.214Z,15.12
2018-07-05T07:09:34.100Z,15.21
2018-07-05T07:10:33.972Z,15.23
2018-07-05T07:11:33.851Z,15.13
2018-07-05T07:12:33.729Z,15.20
2018-07-05T07:13:33.612Z,15.27
2018-07-05T07:14:33.488Z,15.27
2018-07-05T07:15:33.366Z,15.30
2018-07-05T07:16:33.245Z,15.20
2018-07-05T07:17:33.125Z,15.23
2018-07-05T07:18:33.004Z,15.11
2018-07-05T07:19:32.881Z,15.23
2018-07-05T07:20:32.762Z,15.23
2018-07-05T07:21:32.689Z,15.27
2018-07-05T07:22:32.520Z,15.30
2018-07-05T07:23:32.399Z,15.31
2018-07-05T07:24:32.279Z,15.35
2018-07-05T07:25:32.153Z,15.41
2018-07-05T07:26:32.032Z,15.46
2018-07-05T07:27:31.918Z,15.42
2018-07-05T07:28:31.790Z,15.49
2018-07-05T07:29:31.668Z,15.39
2018-07-05T07:30:31.548Z,15.60
2018-07-05T07:31:31.485Z,15.74
2018-07-05T07:32:31.305Z,15.74
2018-07-05T07:33:31.190Z,15.79
2018-07-05T07:34:31.066Z,16.01
2018-07-05T07:35:30.945Z,15.94
2018-07-05T07:36:30.821Z,16.09
2018-07-05T07:37:30.804Z,16.25
2018-07-05T07:38:30.580Z,16.22
2018-07-05T07:39:30.461Z,16.31
2018-07-05T07:40:30.339Z,16.37
2018-07-05T07:41:30.220Z,16.35
2018-07-05T07:42:30.097Z,16.30
2018-07-05T07:43:29.978Z,16.30
2018-07-05T07:44:29.856Z,16.18
2018-07-05T07:45:29.754Z,16.18
2018-07-05T07:46:29.615Z,16.20
2018-07-05T07:47:29.494Z,16.15
2018-07-05T07:48:29.371Z,16.12
2018-07-05T07:49:29.251Z,16.23
2018-07-05T07:50:29.132Z,16.27
2018-07-05T07:51:29.022Z,16.31
2018-07-05T07:52:28.894Z,16.34
2018-07-05T07:53:28.769Z,16.34
2018-07-05T07:54:28.653Z,16.27
2018-07-05T07:55:28.535Z,16.26
2018-07-05T07:56:28.409Z,16.23
2018-07-05T07:57:28.286Z,16.38
2018-07-05T07:58:28.167Z,16.50
2018-07-05T07:59:28.049Z,16.63
2018-07-05T08:00:27.926Z,16.77
2018-07-05T08:01:27.803Z,16.88
2018-07-05T08:02:27.684Z,16.88
2018-07-05T08:03:27.568Z,16.95
2018-07-05T08:04:27.448Z,17.03
2018-07-05T08:05:27.324Z,17.13
2018-07-05T08:06:27.200Z,17.00
2018-07-05T08:07:27.080Z,17.13
2018-07-05T08:08:26.960Z,17.32
2018-07-05T08:09:26.839Z,17.33
2018-07-05T08:10:26.719Z,17.30
2018-07-05T08:11:26.603Z,17.33
2018-07-05T08:12:26.478Z,17.29
2018-07-05T08:13:26.357Z,17.33
2018-07-05T08:14:26.243Z,17.20
2018-07-05T08:15:26.117Z,17.29
2018-07-05T08:16:25.995Z,17.32
2018-07-05T08:17:25.876Z,17.25
2018-07-05T08:18:25.760Z,17.15
2018-07-05T08:19:25.637Z,17.15
2018-07-05T08:20:25.554Z,17.22
2018-07-05T08:21:25.398Z,17.17
2018-07-05T08:22:25.281Z,17.15
2018-07-05T08:23:25.157Z,17.20
2018-07-05T08:24:25.037Z,17.18
2018-07-05T08:25:24.914Z,17.13
2018-07-05T08:26:24.795Z,17.17
2018-07-05T08:27:24.676Z,17.17
2018-07-05T08:28:24.560Z,17.36
2018-07-05T08:29:24.437Z,17.36
2018-07-05T08:30:24.319Z,17.36
2018-07-05T08:31:24.200Z,17.38
2018-07-05T08:32:24.078Z,17.38
2018-07-05T08:33:23.955Z,17.28
2018-07-05T08:34:23.835Z,17.29
2018-07-05T08:35:23.718Z,17.30
2018-07-05T08:36:23.596Z,17.33
2018-07-05T08:37:23.480Z,17.29
2018-07-05T08:38:23.358Z,17.33
2018-07-05T08:39:23.240Z,17.33
2018-07-05T08:40:23.117Z,17.50
2018-07-05T08:41:23.001Z,17.53
2018-07-05T08:42:22.878Z,17.74
2018-07-05T08:43:22.757Z,17.74
2018-07-05T08:44:22.638Z,17.70
2018-07-05T08:45:22.524Z,17.59
2018-07-05T08:46:22.402Z,17.62
2018-07-05T08:47:22.280Z,17.59
2018-07-05T08:48:22.159Z,17.53
2018-07-05T08:49:22.042Z,17.51
2018-07-05T08:50:21.922Z,17.59
2018-07-05T08:51:21.803Z,17.76
2018-07-05T08:52:21.681Z,17.91
2018-07-05T08:53:21.562Z,18.03
2018-07-05T08:54:21.446Z,18.18
2018-07-05T08:55:21.323Z,18.13
2018-07-05T08:56:21.203Z,18.24
2018-07-05T08:57:21.083Z,18.34
2018-07-05T08:58:21.018Z,18.22
2018-07-05T08:59:20.847Z,18.28
2018-07-05T09:00:20.725Z,18.27
2018-07-05T09:01:20.606Z,18.39
2018-07-05T09:02:20.491Z,18.43
2018-07-05T09:03:20.367Z,18.42
2018-07-05T09:04:20.248Z,18.43
2018-07-05T09:05:20.167Z,18.50
2018-07-05T09:06:20.010Z,18.57
2018-07-05T09:07:19.890Z,18.58
2018-07-05T09:08:19.768Z,18.62
2018-07-05T09:09:19.650Z,18.55
2018-07-05T09:10:19.531Z,18.57
2018-07-05T09:11:19.414Z,18.68
2018-07-05T09:12:19.291Z,18.74
2018-07-05T09:13:19.172Z,18.94
2018-07-05T09:14:19.056Z,19.15
2018-07-05T09:15:18.936Z,18.99
2018-07-05T09:16:18.818Z,19.10
2018-07-05T09:17:18.703Z,18.70
2018-07-05T09:18:18.785Z,18.77
2018-07-05T09:19:18.459Z,18.72
2018-07-05T09:20:18.339Z,18.74
2018-07-05T09:21:18.220Z,18.83
2018-07-05T09:22:18.103Z,18.57
2018-07-05T09:23:18.104Z,18.72
2018-07-05T09:24:17.869Z,18.64
2018-07-05T09:25:17.747Z,18.74
2018-07-05T09:26:17.628Z,18.90
2018-07-05T09:27:17.511Z,18.98
2018-07-05T09:28:17.390Z,19.21
2018-07-05T09:29:17.273Z,19.48
2018-07-05T09:30:17.154Z,19.65
2018-07-05T09:31:17.133Z,19.91
2018-07-05T09:32:16.920Z,19.83
2018-07-05T09:33:16.797Z,20.15
2018-07-05T09:34:16.684Z,20.34
2018-07-05T09:35:16.564Z,20.50
2018-07-05T09:36:16.443Z,20.69
2018-07-05T09:37:16.330Z,20.77
2018-07-05T09:38:16.210Z,20.95
2018-07-05T09:39:16.090Z,20.87
2018-07-05T09:40:15.973Z,20.90
2018-07-05T09:41:15.857Z,20.99
2018-07-05T09:42:15.739Z,21.01
2018-07-05T09:43:15.625Z,21.02
2018-07-05T09:44:15.503Z,20.86
2018-07-05T09:45:15.384Z,20.86
2018-07-05T09:46:15.268Z,20.71
2018-07-05T09:47:15.152Z,20.58
2018-07-05T09:48:15.035Z,20.71
2018-07-05T09:49:14.915Z,20.62
2018-07-05T09:50:14.802Z,20.42
2018-07-05T09:51:14.718Z,20.50
2018-07-05T09:52:14.568Z,20.27
2018-07-05T09:53:14.456Z,20.30
2018-07-05T09:54:14.330Z,20.35
2018-07-05T09:55:14.214Z,20.51
2018-07-05T09:56:14.097Z,20.54
2018-07-05T09:57:13.980Z,20.56
2018-07-05T09:58:13.860Z,20.74
2018-07-05T09:59:13.746Z,20.76
2018-07-05T10:00:13.629Z,20.89
2018-07-05T10:01:13.513Z,20.87
2018-07-05T10:02:13.396Z,20.86
2018-07-05T10:03:13.276Z,20.87
2018-07-05T10:04:13.159Z,20.96
2018-07-05T10:05:13.042Z,20.99
2018-07-05T10:06:12.924Z,21.21
2018-07-05T10:07:12.807Z,21.14
2018-07-05T10:08:12.690Z,21.32
2018-07-05T10:09:12.573Z,21.20
2018-07-05T10:10:12.457Z,21.20
2018-07-05T10:11:12.340Z,21.17
2018-07-05T10:12:12.222Z,21.27
2018-07-05T10:13:12.195Z,21.23
2018-07-05T10:14:11.988Z,21.27
2018-07-05T10:15:11.876Z,21.20
2018-07-05T10:16:11.759Z,21.26
2018-07-05T10:17:11.642Z,21.34
2018-07-05T10:18:11.524Z,21.38
2018-07-05T10:19:11.409Z,21.45
2018-07-05T10:20:11.290Z,21.39
2018-07-05T10:21:11.175Z,21.27
2018-07-05T10:22:11.060Z,21.35
2018-07-05T10:23:10.942Z,21.13
2018-07-05T10:24:10.823Z,21.26
2018-07-05T10:25:10.706Z,21.14
2018-07-05T10:26:10.591Z,20.95
2018-07-05T10:27:10.478Z,20.89
2018-07-05T10:28:10.360Z,20.71
2018-07-05T10:29:10.243Z,20.81
2018-07-05T10:30:10.129Z,20.79
2018-07-05T10:31:10.012Z,20.54
2018-07-05T10:32:09.894Z,20.72
2018-07-05T10:33:09.781Z,20.62
2018-07-05T10:34:09.663Z,20.79
2018-07-05T10:35:09.549Z,20.64
2018-07-05T10:36:09.429Z,20.56
2018-07-05T10:37:09.312Z,20.27
2018-07-05T10:38:09.198Z,20.12
2018-07-05T10:39:09.081Z,20.02
2018-07-05T10:40:08.966Z,20.12
2018-07-05T10:41:08.847Z,20.05
2018-07-05T10:42:08.731Z,20.05
2018-07-05T10:43:08.616Z,20.13
2018-07-05T10:44:08.496Z,20.24
2018-07-05T10:45:08.382Z,20.25
2018-07-05T10:46:08.346Z,20.18
2018-07-05T10:47:08.149Z,20.24
2018-07-05T10:48:08.038Z,20.38
2018-07-05T10:49:07.914Z,20.31
2018-07-05T10:50:07.795Z,20.25
2018-07-05T10:51:07.683Z,20.12
2018-07-05T10:52:07.570Z,19.80
2018-07-05T10:53:07.445Z,19.66
2018-07-05T10:54:07.331Z,19.48
2018-07-05T10:55:07.212Z,19.55
2018-07-05T10:56:07.092Z,19.33
2018-07-05T10:57:06.981Z,19.32
2018-07-05T10:58:06.859Z,19.28
2018-07-05T10:59:06.745Z,19.38
2018-07-05T11:00:06.626Z,19.24
2018-07-05T11:01:06.564Z,19.08
2018-07-05T11:02:06.393Z,18.91
2018-07-05T11:03:06.275Z,18.79
2018-07-05T11:04:06.154Z,18.83
2018-07-05T11:05:06.039Z,18.90
2018-07-05T11:06:05.919Z,18.91
2018-07-05T11:07:05.824Z,19.01
2018-07-05T11:08:05.684Z,19.08
2018-07-05T11:09:05.564Z,19.13
2018-07-05T11:10:05.446Z,18.86
2018-07-05T11:11:05.329Z,18.74
2018-07-05T11:12:05.210Z,18.70
2018-07-05T11:13:05.092Z,18.67
2018-07-05T11:14:04.973Z,18.65
2018-07-05T11:15:04.859Z,18.58
2018-07-05T11:16:04.738Z,18.59
2018-07-05T11:17:04.619Z,18.49
2018-07-05T11:18:04.505Z,18.43
2018-07-05T11:19:04.386Z,18.42
2018-07-05T11:20:04.263Z,18.54
2018-07-05T11:21:04.169Z,18.55
2018-07-05T11:22:04.026Z,18.52
2018-07-05T11:23:03.904Z,18.49
2018-07-05T11:24:03.786Z,18.50
2018-07-05T11:25:03.671Z,18.64
2018-07-05T11:26:03.550Z,18.65
2018-07-05T11:27:03.433Z,18.77
2018-07-05T11:28:03.327Z,18.76
2018-07-05T11:29:03.194Z,18.70
2018-07-05T11:30:03.075Z,18.47
2018-07-05T11:31:02.960Z,18.33
2018-07-05T11:32:02.838Z,18.37
2018-07-05T11:33:02.725Z,18.39
2018-07-05T11:34:02.599Z,18.54
2018-07-05T11:35:02.484Z,18.49
2018-07-05T11:36:02.400Z,18.61
2018-07-05T11:37:02.245Z,18.73
2018-07-05T11:38:02.128Z,18.67
2018-07-05T11:39:02.007Z,18.65
2018-07-05T11:40:01.887Z,18.57
2018-07-05T11:41:01.766Z,18.40
2018-07-05T11:42:01.652Z,18.36
2018-07-05T11:43:01.533Z,18.13
2018-07-05T11:44:01.413Z,18.13
2018-07-05T11:45:02.253Z,18.06
2018-07-05T11:46:01.175Z,18.02
2018-07-05T11:47:01.055Z,17.99
2018-07-05T11:48:00.937Z,17.92
2018-07-05T11:49:00.821Z,18.03
2018-07-05T11:50:00.699Z,18.06
2018-07-05T11:51:00.583Z,18.12
2018-07-05T11:52:00.511Z,18.12
2018-07-05T11:53:00.371Z,18.19
2018-07-05T11:54:00.224Z,18.33
2018-07-05T11:55:00.106Z,18.33
2018-07-05T11:55:59.986Z,18.40
2018-07-05T11:56:59.868Z,18.42
2018-07-05T11:57:59.747Z,18.42
2018-07-05T11:58:59.626Z,18.43
2018-07-05T11:59:59.513Z,18.55
2018-07-05T12:00:59.388Z,18.73
2018-07-05T12:01:59.277Z,18.72
2018-07-05T12:02:59.174Z,18.68
2018-07-05T12:03:59.035Z,18.57
2018-07-05T12:04:58.917Z,18.68
2018-07-05T12:05:58.795Z,18.84
2018-07-05T12:06:58.676Z,19.05
2018-07-05T12:07:58.556Z,19.20
2018-07-05T12:08:58.450Z,19.28
2018-07-05T12:09:58.320Z,19.31
2018-07-05T12:10:58.201Z,19.48
2018-07-05T12:11:58.084Z,19.48
2018-07-05T12:12:57.966Z,19.65
2018-07-05T12:13:57.846Z,19.75
2018-07-05T12:14:57.727Z,19.68
2018-07-05T12:15:57.668Z,19.72
2018-07-05T12:16:57.492Z,19.83
2018-07-05T12:17:57.393Z,19.63
2018-07-05T12:18:57.258Z,19.23
2018-07-05T12:19:57.140Z,19.25
2018-07-05T12:20:57.021Z,19.17
2018-07-05T12:21:56.904Z,19.08
2018-07-05T12:22:56.789Z,19.01
2018-07-05T12:23:56.678Z,19.05
2018-07-05T12:24:56.553Z,19.10
2018-07-05T12:25:56.433Z,18.80
2018-07-05T12:26:56.318Z,18.72
2018-07-05T12:27:56.536Z,18.49
2018-07-05T12:28:56.083Z,18.57
2018-07-05T12:29:55.965Z,18.52
2018-07-05T12:30:55.846Z,18.68
2018-07-05T12:31:55.723Z,18.86
2018-07-05T12:32:55.611Z,18.84
2018-07-05T12:33:55.489Z,18.97
2018-07-05T12:34:55.371Z,18.79
2018-07-05T12:35:55.587Z,18.92
2018-07-05T12:36:55.134Z,19.02
2018-07-05T12:37:55.019Z,19.17
2018-07-05T12:38:54.900Z,19.23
2018-07-05T12:39:54.780Z,19.54
2018-07-05T12:40:54.683Z,20.50
2018-07-05T12:41:54.544Z,21.24
2018-07-05T12:42:54.433Z,21.48
2018-07-05T12:43:54.393Z,21.42
2018-07-05T12:44:54.193Z,21.14
2018-07-05T12:45:54.076Z,20.54
2018-07-05T12:46:53.958Z,20.35
2018-07-05T12:47:54.029Z,20.25
2018-07-05T12:48:53.724Z,20.34
2018-07-05T12:49:53.606Z,20.38
2018-07-05T12:50:53.489Z,20.30